createdAt,value
2022-08-20T00:00:14.118Z,22.70
2022-08-20T00:00:26.950Z,22.70
2022-08-20T00:00:40.117Z,22.70
2022-08-20T00:01:01.982Z,22.70
2022-08-20T00:01:14.288Z,22.70
2022-08-20T00:01:26.138Z,22.70
2022-08-20T00:01:38.010Z,22.70
2022-08-20T00:01:49.822Z,22.70
2022-08-20T00:02:01.816Z,22.80
2022-08-20T00:02:14.465Z,22.80
2022-08-20T00:02:26.356Z,22.70
2022-08-20T00:02:42.616Z,22.70
2022-08-20T00:02:59.914Z,22.70
2022-08-20T00:03:16.887Z,22.70
2022-08-20T00:03:31.721Z,22.70
2022-08-20T00:03:44.883Z,22.70
2022-08-20T00:04:02.071Z,22.70
2022-08-20T00:04:14.532Z,22.70
2022-08-20T00:04:26.294Z,22.70
2022-08-20T00:04:39.677Z,22.70
2022-08-20T00:04:51.549Z,22.70
2022-08-20T00:05:03.715Z,22.70
2022-08-20T00:05:16.015Z,22.70
2022-08-20T00:05:35.320Z,22.70
2022-08-20T00:05:56.754Z,22.70
2022-08-20T00:06:11.519Z,22.70
2022-08-20T00:06:23.599Z,22.70
2022-08-20T00:06:35.295Z,22.70
2022-08-20T00:06:48.390Z,22.70
2022-08-20T00:07:00.201Z,22.70
2022-08-20T00:07:12.940Z,22.70
2022-08-20T00:07:24.684Z,22.70
2022-08-20T00:07:36.456Z,22.70
2022-08-20T00:07:48.156Z,22.70
2022-08-20T00:08:00.465Z,22.70
2022-08-20T00:08:12.297Z,22.70
2022-08-20T00:08:24.229Z,22.70
2022-08-20T00:08:36.204Z,22.70
2022-08-20T00:08:47.954Z,22.70
2022-08-20T00:08:59.829Z,22.70
2022-08-20T00:09:11.549Z,22.60
2022-08-20T00:09:23.301Z,22.70
2022-08-20T00:09:36.902Z,22.70
2022-08-20T00:09:48.877Z,22.60
2022-08-20T00:10:00.702Z,22.60
2022-08-20T00:10:12.423Z,22.70
2022-08-20T00:10:24.229Z,22.60
2022-08-20T00:10:36.995Z,22.60
2022-08-20T00:10:53.682Z,22.60
2022-08-20T00:11:09.945Z,22.60
2022-08-20T00:11:23.478Z,22.70
2022-08-20T00:11:36.990Z,22.60
2022-08-20T00:11:48.754Z,22.60
2022-08-20T00:12:01.650Z,22.60
2022-08-20T00:12:13.591Z,22.60
2022-08-20T00:12:25.319Z,22.60
2022-08-20T00:12:37.333Z,22.60
2022-08-20T00:12:49.476Z,22.60
2022-08-20T00:13:01.368Z,22.60
2022-08-20T00:13:18.110Z,22.60
2022-08-20T00:13:33.306Z,22.60
2022-08-20T00:13:47.564Z,22.60
2022-08-20T00:14:00.432Z,22.60
2022-08-20T00:14:12.434Z,22.60
2022-08-20T00:14:24.187Z,22.60
2022-08-20T00:14:35.943Z,22.60
2022-08-20T00:14:47.672Z,22.60
2022-08-20T00:14:59.405Z,22.60
2022-08-20T00:15:12.416Z,22.60
2022-08-20T00:15:28.392Z,22.60
2022-08-20T00:15:40.151Z,22.60
2022-08-20T00:15:51.941Z,22.60
2022-08-20T00:16:04.580Z,22.60
2022-08-20T00:16:16.789Z,22.60
2022-08-20T00:16:32.924Z,22.60
2022-08-20T00:16:44.705Z,22.60
2022-08-20T00:16:56.598Z,22.60
2022-08-20T00:17:11.797Z,22.50
2022-08-20T00:17:23.572Z,22.50
2022-08-20T00:17:38.086Z,22.50
2022-08-20T00:17:52.687Z,22.60
2022-08-20T00:18:04.943Z,22.50
2022-08-20T00:18:16.730Z,22.50
2022-08-20T00:18:28.560Z,22.50
2022-08-20T00:18:41.205Z,22.50
2022-08-20T00:18:53.079Z,22.50
2022-08-20T00:19:06.849Z,22.50
2022-08-20T00:19:18.541Z,22.50
2022-08-20T00:19:30.401Z,22.50
2022-08-20T00:19:42.117Z,22.50
2022-08-20T00:19:53.797Z,22.50
2022-08-20T00:20:08.743Z,22.50
2022-08-20T00:20:21.508Z,22.50
2022-08-20T00:20:37.462Z,22.50
2022-08-20T00:20:51.326Z,22.50
2022-08-20T00:21:04.185Z,22.50
2022-08-20T00:21:19.178Z,22.50
2022-08-20T00:21:31.415Z,22.50
2022-08-20T00:21:43.258Z,22.50
2022-08-20T00:21:58.101Z,22.50
2022-08-20T00:22:10.243Z,22.50
2022-08-20T00:22:21.994Z,22.50
2022-08-20T00:22:33.710Z,22.50
2022-08-20T00:22:45.598Z,22.50
2022-08-20T00:22:57.624Z,22.50
2022-08-20T00:23:10.653Z,22.50
2022-08-20T00:23:22.598Z,22.50
2022-08-20T00:23:37.319Z,22.50
2022-08-20T00:23:50.442Z,22.50
2022-08-20T00:24:02.351Z,22.50
2022-08-20T00:24:14.265Z,22.50
2022-08-20T00:24:26.062Z,22.50
2022-08-20T00:24:38.098Z,22.50
2022-08-20T00:24:49.846Z,22.50
2022-08-20T00:25:02.430Z,22.50
2022-08-20T00:25:14.387Z,22.50
2022-08-20T00:25:26.630Z,22.50
2022-08-20T00:25:38.712Z,22.50
2022-08-20T00:25:50.556Z,22.50
2022-08-20T00:26:02.333Z,22.50
2022-08-20T00:26:14.129Z,22.50
2022-08-20T00:26:26.052Z,22.50
2022-08-20T00:26:37.912Z,22.50
2022-08-20T00:27:03.901Z,22.50
2022-08-20T00:27:15.649Z,22.50
2022-08-20T00:27:27.421Z,22.50
2022-08-20T00:27:39.199Z,22.50
2022-08-20T00:27:50.994Z,22.50
2022-08-20T00:28:03.784Z,22.40
2022-08-20T00:28:15.671Z,22.50
2022-08-20T00:28:27.497Z,22.50
2022-08-20T00:28:39.318Z,22.50
2022-08-20T00:28:51.321Z,22.40
2022-08-20T00:29:03.107Z,22.50
2022-08-20T00:29:16.397Z,22.40
2022-08-20T00:29:31.948Z,22.40
2022-08-20T00:29:43.669Z,22.40
2022-08-20T00:29:55.437Z,22.40
2022-08-20T00:30:09.362Z,22.40
2022-08-20T00:30:21.583Z,22.40
2022-08-20T00:30:34.729Z,22.40
2022-08-20T00:30:46.712Z,22.50
2022-08-20T00:30:58.527Z,22.40
2022-08-20T00:31:11.511Z,22.40
2022-08-20T00:31:23.769Z,22.40
2022-08-20T00:31:35.525Z,22.40
2022-08-20T00:31:50.601Z,22.40
2022-08-20T00:32:02.418Z,22.40
2022-08-20T00:32:14.171Z,22.40
2022-08-20T00:32:25.956Z,22.40
2022-08-20T00:32:47.233Z,22.40
2022-08-20T00:33:01.571Z,22.40
2022-08-20T00:33:18.891Z,22.40
2022-08-20T00:33:31.360Z,22.40
2022-08-20T00:33:43.113Z,22.40
2022-08-20T00:33:54.887Z,22.40
2022-08-20T00:34:06.630Z,22.40
2022-08-20T00:34:18.429Z,22.30
2022-08-20T00:34:30.267Z,22.30
2022-08-20T00:34:42.472Z,22.30
2022-08-20T00:34:54.184Z,22.30
2022-08-20T00:35:06.158Z,22.30
2022-08-20T00:35:19.535Z,22.30
2022-08-20T00:35:33.983Z,22.40
2022-08-20T00:35:48.376Z,22.30
2022-08-20T00:36:06.481Z,22.30
2022-08-20T00:36:18.265Z,22.30
2022-08-20T00:36:32.140Z,22.30
2022-08-20T00:36:44.689Z,22.40
2022-08-20T00:36:56.505Z,22.30
2022-08-20T00:37:09.067Z,22.40
2022-08-20T00:37:20.816Z,22.40
2022-08-20T00:37:32.577Z,22.30
2022-08-20T00:37:44.361Z,22.30
2022-08-20T00:38:00.066Z,22.30
2022-08-20T00:38:12.629Z,22.30
2022-08-20T00:38:24.910Z,22.40
2022-08-20T00:38:37.856Z,22.30
2022-08-20T00:38:49.732Z,22.40
2022-08-20T00:39:01.665Z,22.40
2022-08-20T00:39:13.499Z,22.40
2022-08-20T00:39:25.214Z,22.40
2022-08-20T00:39:36.971Z,22.40
2022-08-20T00:39:48.805Z,22.40
2022-08-20T00:40:01.277Z,22.40
2022-08-20T00:40:22.544Z,22.40
2022-08-20T00:40:37.361Z,22.40
2022-08-20T00:40:58.037Z,22.40
2022-08-20T00:41:12.476Z,22.30
2022-08-20T00:41:25.641Z,22.30
2022-08-20T00:41:37.698Z,22.30
2022-08-20T00:41:49.409Z,22.40
2022-08-20T00:42:01.474Z,22.30
2022-08-20T00:42:13.253Z,22.30
2022-08-20T00:42:25.389Z,22.30
2022-08-20T00:42:42.224Z,22.30
2022-08-20T00:42:58.517Z,22.30
2022-08-20T00:43:25.601Z,22.30
2022-08-20T00:43:42.676Z,22.30
2022-08-20T00:44:10.329Z,22.30
2022-08-20T00:44:22.770Z,22.30
2022-08-20T00:44:34.600Z,22.30
2022-08-20T00:44:46.807Z,22.30
2022-08-20T00:44:58.514Z,22.40
2022-08-20T00:45:11.318Z,22.30
2022-08-20T00:45:23.093Z,22.30
2022-08-20T00:45:35.251Z,22.30
2022-08-20T00:45:46.967Z,22.30
2022-08-20T00:46:00.010Z,22.40
2022-08-20T00:46:31.626Z,22.30
2022-08-20T00:46:44.068Z,22.40
2022-08-20T00:46:55.861Z,22.40
2022-08-20T00:47:09.192Z,22.30
2022-08-20T00:47:21.018Z,22.30
2022-08-20T00:47:32.748Z,22.30
2022-08-20T00:47:51.114Z,22.30
2022-08-20T00:48:03.747Z,22.30
2022-08-20T00:48:15.931Z,22.30
2022-08-20T00:48:31.714Z,22.30
2022-08-20T00:48:50.252Z,22.30
2022-08-20T00:49:03.753Z,22.30
2022-08-20T00:49:22.286Z,22.30
2022-08-20T00:49:34.063Z,22.30
2022-08-20T00:49:45.830Z,22.30
2022-08-20T00:49:57.507Z,22.30
2022-08-20T00:50:13.306Z,22.30
2022-08-20T00:50:34.314Z,22.30
2022-08-20T00:50:46.004Z,22.30
2022-08-20T00:51:12.377Z,22.30
2022-08-20T00:51:30.008Z,22.30
2022-08-20T00:51:44.508Z,22.40
2022-08-20T00:52:09.532Z,22.40
2022-08-20T00:52:22.050Z,22.40
2022-08-20T00:52:33.805Z,22.30
2022-08-20T00:52:49.857Z,22.40
2022-08-20T00:53:02.802Z,22.30
2022-08-20T00:53:15.084Z,22.30
2022-08-20T00:53:26.821Z,22.30
2022-08-20T00:53:38.910Z,22.30
2022-08-20T00:53:50.621Z,22.30
2022-08-20T00:54:24.887Z,22.30
2022-08-20T00:54:50.162Z,22.30
2022-08-20T00:55:05.471Z,22.30
2022-08-20T00:55:17.967Z,22.30
2022-08-20T00:55:31.747Z,22.30
2022-08-20T00:55:43.619Z,22.30
2022-08-20T00:55:55.607Z,22.30
2022-08-20T00:56:07.689Z,22.30
2022-08-20T00:56:19.481Z,22.30
2022-08-20T00:56:33.369Z,22.30
2022-08-20T00:56:46.182Z,22.30
2022-08-20T00:57:07.996Z,22.30
2022-08-20T00:57:26.426Z,22.30
2022-08-20T00:57:50.655Z,22.30
2022-08-20T00:58:12.766Z,22.30
2022-08-20T00:58:24.543Z,22.30
2022-08-20T00:58:39.499Z,22.30
2022-08-20T00:58:51.265Z,22.20
2022-08-20T00:59:03.246Z,22.20
2022-08-20T00:59:18.584Z,22.30
2022-08-20T00:59:32.503Z,22.20
2022-08-20T00:59:44.348Z,22.20
2022-08-20T00:59:57.416Z,22.30
2022-08-20T01:00:18.375Z,22.20
2022-08-20T01:00:42.613Z,22.20
2022-08-20T01:00:54.473Z,22.20
2022-08-20T01:01:06.639Z,22.20
2022-08-20T01:01:19.302Z,22.20
2022-08-20T01:01:34.451Z,22.20
2022-08-20T01:02:11.783Z,22.20
2022-08-20T01:02:25.390Z,22.20
2022-08-20T01:02:41.168Z,22.20
2022-08-20T01:02:53.409Z,22.20
2022-08-20T01:03:09.878Z,22.20
2022-08-20T01:03:21.938Z,22.20
2022-08-20T01:03:34.046Z,22.20
2022-08-20T01:03:46.039Z,22.20
2022-08-20T01:03:58.224Z,22.20
2022-08-20T01:04:11.025Z,22.20
2022-08-20T01:04:23.175Z,22.20
2022-08-20T01:04:35.123Z,22.20
2022-08-20T01:04:52.600Z,22.10
2022-08-20T01:05:05.150Z,22.20
2022-08-20T01:05:17.023Z,22.10
2022-08-20T01:05:29.631Z,22.10
2022-08-20T01:05:45.259Z,22.20
2022-08-20T01:05:57.811Z,22.20
2022-08-20T01:06:11.747Z,22.10
2022-08-20T01:06:25.177Z,22.20
2022-08-20T01:06:38.414Z,22.20
2022-08-20T01:06:50.979Z,22.10
2022-08-20T01:07:05.284Z,22.10
2022-08-20T01:07:20.429Z,22.10
2022-08-20T01:07:35.035Z,22.10
2022-08-20T01:07:48.378Z,22.10
2022-08-20T01:08:03.804Z,22.10
2022-08-20T01:08:17.239Z,22.10
2022-08-20T01:08:29.073Z,22.10
2022-08-20T01:08:42.625Z,22.10
2022-08-20T01:08:54.367Z,22.10
2022-08-20T01:09:06.539Z,22.10
2022-08-20T01:09:18.246Z,22.10
2022-08-20T01:09:58.231Z,22.10
2022-08-20T01:10:19.448Z,22.10
2022-08-20T01:10:34.943Z,22.10
2022-08-20T01:10:48.823Z,22.10
2022-08-20T01:11:20.830Z,22.10
2022-08-20T01:11:36.991Z,22.10
2022-08-20T01:11:49.670Z,22.20
2022-08-20T01:12:01.735Z,22.10
2022-08-20T01:12:14.241Z,22.20
2022-08-20T01:12:27.206Z,22.20
2022-08-20T01:12:40.063Z,22.10
2022-08-20T01:12:53.225Z,22.10
2022-08-20T01:13:14.467Z,22.20
2022-08-20T01:13:27.158Z,22.10
2022-08-20T01:13:39.546Z,22.20
2022-08-20T01:13:51.362Z,22.20
2022-08-20T01:14:22.828Z,22.20
2022-08-20T01:14:34.509Z,22.20
2022-08-20T01:14:46.686Z,22.20
2022-08-20T01:14:59.536Z,22.20
2022-08-20T01:15:15.043Z,22.20
2022-08-20T01:15:30.862Z,22.20
2022-08-20T01:15:44.539Z,22.20
2022-08-20T01:15:56.325Z,22.20
2022-08-20T01:16:34.318Z,22.20
2022-08-20T01:16:46.230Z,22.20
2022-08-20T01:17:01.492Z,22.20
2022-08-20T01:17:22.136Z,22.20
2022-08-20T01:17:35.037Z,22.20
2022-08-20T01:17:49.484Z,22.20
2022-08-20T01:18:01.898Z,22.30
2022-08-20T01:18:21.464Z,22.30
2022-08-20T01:18:33.227Z,22.30
2022-08-20T01:18:45.054Z,22.30
2022-08-20T01:18:57.711Z,22.30
2022-08-20T01:19:29.989Z,22.30
2022-08-20T01:19:45.559Z,22.30
2022-08-20T01:20:10.772Z,22.30
2022-08-20T01:20:28.396Z,22.30
2022-08-20T01:20:44.318Z,22.30
2022-08-20T01:20:58.618Z,22.30
2022-08-20T01:21:10.543Z,22.30
2022-08-20T01:21:24.445Z,22.30
2022-08-20T01:21:36.181Z,22.30
2022-08-20T01:21:49.776Z,22.30
2022-08-20T01:22:23.856Z,22.30
2022-08-20T01:23:16.940Z,22.30
2022-08-20T01:23:43.275Z,22.30
2022-08-20T01:24:06.675Z,22.20
2022-08-20T01:24:22.590Z,22.30
2022-08-20T01:24:38.211Z,22.20
2022-08-20T01:24:50.345Z,22.20
2022-08-20T01:25:06.959Z,22.20
2022-08-20T01:25:37.040Z,22.20
2022-08-20T01:26:23.808Z,22.20
2022-08-20T01:26:40.197Z,22.20
2022-08-20T01:26:51.959Z,22.20
2022-08-20T01:27:04.610Z,22.20
2022-08-20T01:27:16.345Z,22.20
2022-08-20T01:27:28.140Z,22.20
2022-08-20T01:27:43.008Z,22.20
2022-08-20T01:27:55.474Z,22.20
2022-08-20T01:28:07.618Z,22.20
2022-08-20T01:28:24.700Z,22.20
2022-08-20T01:28:43.530Z,22.20
2022-08-20T01:29:01.799Z,22.20
2022-08-20T01:29:15.846Z,22.20
2022-08-20T01:29:29.577Z,22.20
2022-08-20T01:29:41.371Z,22.20
2022-08-20T01:29:53.272Z,22.20
2022-08-20T01:30:06.910Z,22.20
2022-08-20T01:30:18.825Z,22.30
2022-08-20T01:30:30.587Z,22.30
2022-08-20T01:30:42.527Z,22.20
2022-08-20T01:30:54.326Z,22.20
2022-08-20T01:31:08.180Z,22.30
2022-08-20T01:31:21.739Z,22.20
2022-08-20T01:31:35.475Z,22.20
2022-08-20T01:31:47.262Z,22.20
2022-08-20T01:32:01.560Z,22.20
2022-08-20T01:32:13.308Z,22.20
2022-08-20T01:32:25.066Z,22.30
2022-08-20T01:32:36.783Z,22.20
2022-08-20T01:32:48.479Z,22.20
2022-08-20T01:33:00.290Z,22.20
2022-08-20T01:33:12.344Z,22.20
2022-08-20T01:33:24.275Z,22.20
2022-08-20T01:33:36.102Z,22.20
2022-08-20T01:33:47.975Z,22.20
2022-08-20T01:34:00.615Z,22.30
2022-08-20T01:34:15.112Z,22.20
2022-08-20T01:34:27.266Z,22.20
2022-08-20T01:34:38.987Z,22.20
2022-08-20T01:34:50.723Z,22.20
2022-08-20T01:35:02.458Z,22.20
2022-08-20T01:35:19.946Z,22.20
2022-08-20T01:35:35.656Z,22.20
2022-08-20T01:35:47.522Z,22.20
2022-08-20T01:36:00.561Z,22.20
2022-08-20T01:36:13.122Z,22.20
2022-08-20T01:36:31.485Z,22.20
2022-08-20T01:36:51.560Z,22.20
2022-08-20T01:37:03.397Z,22.20
2022-08-20T01:37:15.159Z,22.20
2022-08-20T01:37:31.592Z,22.20
2022-08-20T01:37:43.551Z,22.20
2022-08-20T01:37:57.535Z,22.20
2022-08-20T01:38:09.456Z,22.20
2022-08-20T01:38:21.510Z,22.20
2022-08-20T01:38:33.324Z,22.20
2022-08-20T01:38:53.895Z,22.20
2022-08-20T01:39:08.142Z,22.20
2022-08-20T01:39:30.749Z,22.20
2022-08-20T01:39:42.666Z,22.20
2022-08-20T01:39:54.455Z,22.20
2022-08-20T01:40:09.261Z,22.20
2022-08-20T01:40:27.933Z,22.20
2022-08-20T01:41:04.353Z,22.20
2022-08-20T01:41:43.704Z,22.20
2022-08-20T01:42:17.628Z,22.20
2022-08-20T01:42:31.728Z,22.20
2022-08-20T01:42:51.107Z,22.20
2022-08-20T01:43:10.678Z,22.20
2022-08-20T01:43:25.019Z,22.20
2022-08-20T01:43:37.887Z,22.20
2022-08-20T01:43:50.342Z,22.20
2022-08-20T01:44:03.411Z,22.20
2022-08-20T01:44:16.860Z,22.20
2022-08-20T01:44:31.005Z,22.20
2022-08-20T01:44:44.490Z,22.20
2022-08-20T01:44:56.415Z,22.20
2022-08-20T01:45:08.458Z,22.20
2022-08-20T01:45:20.287Z,22.20
2022-08-20T01:45:40.211Z,22.20
2022-08-20T01:45:52.926Z,22.20
2022-08-20T01:46:04.918Z,22.20
2022-08-20T01:46:17.313Z,22.20
2022-08-20T01:46:38.954Z,22.20
2022-08-20T01:46:57.481Z,22.20
2022-08-20T01:47:12.419Z,22.20
2022-08-20T01:47:29.032Z,22.20
2022-08-20T01:47:40.910Z,22.20
2022-08-20T01:47:55.084Z,22.20
2022-08-20T01:48:08.146Z,22.20
2022-08-20T01:48:22.095Z,22.20
2022-08-20T01:48:34.248Z,22.20
2022-08-20T01:48:45.963Z,22.20
2022-08-20T01:48:57.916Z,22.20
2022-08-20T01:49:23.029Z,22.20
2022-08-20T01:49:35.528Z,22.20
2022-08-20T01:49:52.050Z,22.10
2022-08-20T01:50:16.372Z,22.10
2022-08-20T01:50:29.705Z,22.10
2022-08-20T01:50:41.880Z,22.10
2022-08-20T01:51:16.565Z,22.10
2022-08-20T01:51:29.458Z,22.10
2022-08-20T01:51:41.710Z,22.10
2022-08-20T01:51:54.618Z,22.10
2022-08-20T01:52:07.716Z,22.10
2022-08-20T01:52:33.803Z,22.10
2022-08-20T01:53:06.921Z,22.10
2022-08-20T01:53:25.373Z,22.10
2022-08-20T01:53:39.021Z,22.10
2022-08-20T01:53:52.671Z,22.10
2022-08-20T01:54:04.764Z,22.10
2022-08-20T01:54:16.489Z,22.10
2022-08-20T01:54:28.360Z,22.10
2022-08-20T01:54:40.165Z,22.10
2022-08-20T01:54:52.534Z,22.10
2022-08-20T01:55:04.982Z,22.10
2022-08-20T01:55:17.067Z,22.10
2022-08-20T01:55:28.932Z,22.10
2022-08-20T01:55:40.686Z,22.00
2022-08-20T01:55:52.460Z,22.10
2022-08-20T01:56:09.016Z,22.10
2022-08-20T01:56:25.697Z,22.10
2022-08-20T01:56:39.993Z,22.00
2022-08-20T01:56:56.539Z,22.00
2022-08-20T01:57:16.397Z,22.10
2022-08-20T01:57:29.219Z,22.10
2022-08-20T01:57:41.039Z,22.00
2022-08-20T01:57:53.006Z,22.00
2022-08-20T01:58:04.737Z,22.00
2022-08-20T01:58:16.633Z,22.00
2022-08-20T01:58:29.703Z,22.00
2022-08-20T01:58:43.550Z,22.00
2022-08-20T01:58:57.399Z,22.00
2022-08-20T01:59:10.770Z,22.00
2022-08-20T01:59:22.565Z,22.00
2022-08-20T01:59:34.268Z,22.00
2022-08-20T01:59:46.159Z,22.00
2022-08-20T01:59:57.907Z,22.00
2022-08-20T02:00:19.835Z,22.00
2022-08-20T02:00:32.618Z,22.00
2022-08-20T02:00:44.428Z,22.00
2022-08-20T02:00:57.552Z,22.00
2022-08-20T02:01:28.429Z,22.00
2022-08-20T02:01:46.160Z,22.00
2022-08-20T02:01:59.268Z,22.00
2022-08-20T02:02:12.662Z,22.00
2022-08-20T02:02:25.774Z,22.00
2022-08-20T02:02:37.542Z,22.00
2022-08-20T02:02:49.918Z,22.00
2022-08-20T02:03:03.266Z,22.00
2022-08-20T02:03:15.037Z,22.00
2022-08-20T02:03:26.770Z,22.00
2022-08-20T02:03:42.937Z,22.00
2022-08-20T02:03:56.577Z,22.00
2022-08-20T02:04:09.323Z,22.00
2022-08-20T02:04:27.137Z,22.00
2022-08-20T02:04:40.203Z,22.00
2022-08-20T02:04:51.999Z,22.00
2022-08-20T02:05:03.999Z,21.90
2022-08-20T02:05:15.763Z,21.90
2022-08-20T02:05:29.928Z,22.00
2022-08-20T02:05:42.600Z,21.90
2022-08-20T02:05:54.958Z,22.00
2022-08-20T02:06:06.954Z,21.90
2022-08-20T02:06:18.731Z,21.90
2022-08-20T02:06:31.822Z,22.00
2022-08-20T02:06:56.751Z,22.00
2022-08-20T02:07:14.135Z,21.90
2022-08-20T02:07:25.812Z,22.00
2022-08-20T02:07:37.732Z,22.00
2022-08-20T02:07:49.598Z,21.90
2022-08-20T02:08:02.055Z,21.90
2022-08-20T02:08:13.826Z,22.00
2022-08-20T02:08:25.579Z,21.90
2022-08-20T02:08:37.293Z,22.00
2022-08-20T02:08:49.071Z,21.90
2022-08-20T02:09:01.373Z,21.90
2022-08-20T02:09:16.114Z,21.90
2022-08-20T02:09:33.639Z,21.90
2022-08-20T02:09:45.646Z,21.90
2022-08-20T02:09:57.425Z,21.90
2022-08-20T02:10:10.164Z,21.90
2022-08-20T02:10:22.902Z,22.00
2022-08-20T02:10:34.794Z,21.90
2022-08-20T02:10:47.136Z,21.90
2022-08-20T02:10:58.908Z,21.90
2022-08-20T02:11:10.934Z,21.90
2022-08-20T02:11:23.075Z,21.90
2022-08-20T02:11:35.005Z,21.90
2022-08-20T02:11:47.620Z,21.90
2022-08-20T02:11:59.701Z,21.90
2022-08-20T02:12:11.696Z,21.90
2022-08-20T02:12:23.435Z,21.90
2022-08-20T02:12:35.356Z,21.90
2022-08-20T02:12:47.157Z,21.90
2022-08-20T02:13:00.052Z,21.90
2022-08-20T02:13:12.348Z,21.90
2022-08-20T02:13:24.625Z,21.90
2022-08-20T02:13:36.403Z,21.90
2022-08-20T02:13:52.455Z,21.90
2022-08-20T02:14:06.758Z,21.90
2022-08-20T02:14:19.254Z,21.90
2022-08-20T02:14:31.050Z,21.90
2022-08-20T02:14:45.429Z,21.90
2022-08-20T02:14:57.227Z,21.90
2022-08-20T02:15:10.412Z,21.90
2022-08-20T02:15:34.866Z,21.90
2022-08-20T02:15:49.334Z,21.90
2022-08-20T02:16:01.044Z,21.90
2022-08-20T02:16:12.766Z,21.90
2022-08-20T02:16:31.097Z,21.90
2022-08-20T02:16:44.170Z,21.90
2022-08-20T02:17:07.182Z,22.00
2022-08-20T02:17:22.504Z,21.90
2022-08-20T02:17:34.277Z,22.00
2022-08-20T02:17:46.036Z,21.90
2022-08-20T02:17:57.811Z,21.90
2022-08-20T02:18:12.390Z,22.00
2022-08-20T02:18:24.150Z,21.90
2022-08-20T02:18:35.919Z,21.90
2022-08-20T02:18:48.920Z,21.90
2022-08-20T02:19:10.553Z,21.90
2022-08-20T02:19:26.518Z,21.90
2022-08-20T02:19:40.787Z,21.90
2022-08-20T02:20:00.706Z,21.90
2022-08-20T02:20:15.107Z,21.90
2022-08-20T02:20:28.469Z,21.90
2022-08-20T02:20:40.264Z,21.90
2022-08-20T02:20:52.347Z,21.90
2022-08-20T02:21:04.204Z,21.90
2022-08-20T02:21:16.099Z,21.90
2022-08-20T02:21:30.537Z,21.80
2022-08-20T02:21:47.510Z,21.90
2022-08-20T02:22:01.653Z,21.80
2022-08-20T02:22:31.726Z,21.80
2022-08-20T02:22:52.993Z,21.80
2022-08-20T02:23:07.494Z,21.80
2022-08-20T02:23:19.361Z,21.80
2022-08-20T02:23:31.386Z,21.80
2022-08-20T02:23:43.105Z,21.80
2022-08-20T02:23:55.106Z,21.80
2022-08-20T02:24:07.082Z,21.80
2022-08-20T02:24:21.304Z,21.80
2022-08-20T02:24:33.035Z,21.80
2022-08-20T02:24:44.832Z,21.80
2022-08-20T02:24:56.581Z,21.80
2022-08-20T02:25:08.966Z,21.80
2022-08-20T02:25:23.131Z,21.80
2022-08-20T02:25:36.461Z,21.80
2022-08-20T02:25:48.253Z,21.80
2022-08-20T02:26:00.244Z,21.80
2022-08-20T02:26:12.034Z,21.80
2022-08-20T02:26:24.677Z,21.80
2022-08-20T02:26:37.814Z,21.80
2022-08-20T02:26:49.593Z,21.70
2022-08-20T02:27:01.607Z,21.80
2022-08-20T02:27:13.405Z,21.80
2022-08-20T02:27:25.163Z,21.80
2022-08-20T02:27:38.041Z,21.80
2022-08-20T02:27:50.254Z,21.80
2022-08-20T02:28:04.142Z,21.80
2022-08-20T02:28:19.295Z,21.70
2022-08-20T02:28:31.147Z,21.70
2022-08-20T02:28:42.833Z,21.70
2022-08-20T02:28:55.512Z,21.70
2022-08-20T02:29:08.759Z,21.70
2022-08-20T02:29:20.467Z,21.70
2022-08-20T02:29:33.051Z,21.70
2022-08-20T02:29:45.139Z,21.70
2022-08-20T02:29:56.911Z,21.70
2022-08-20T02:30:19.316Z,21.70
2022-08-20T02:30:41.594Z,21.80
2022-08-20T02:30:53.746Z,21.70
2022-08-20T02:31:08.437Z,21.80
2022-08-20T02:31:21.026Z,21.70
2022-08-20T02:31:34.966Z,21.70
2022-08-20T02:32:24.519Z,21.70
2022-08-20T02:32:24.547Z,21.70
2022-08-20T02:32:45.320Z,21.70
2022-08-20T02:32:57.568Z,21.70
2022-08-20T02:33:10.837Z,21.70
2022-08-20T02:33:24.445Z,21.70
2022-08-20T02:33:36.484Z,21.70
2022-08-20T02:34:21.667Z,21.70
2022-08-20T02:34:23.151Z,21.70
2022-08-20T02:34:35.398Z,21.70
2022-08-20T02:34:47.154Z,21.70
2022-08-20T02:34:58.944Z,21.70
2022-08-20T02:35:12.084Z,21.70
2022-08-20T02:35:24.332Z,21.70
2022-08-20T02:35:36.194Z,21.70
2022-08-20T02:35:48.716Z,21.70
2022-08-20T02:36:00.466Z,21.70
2022-08-20T02:36:13.215Z,21.70
2022-08-20T02:36:26.824Z,21.70
2022-08-20T02:36:38.961Z,21.70
2022-08-20T02:36:50.730Z,21.70
2022-08-20T02:37:03.219Z,21.70
2022-08-20T02:37:16.756Z,21.70
2022-08-20T02:37:28.636Z,21.70
2022-08-20T02:37:43.481Z,21.70
2022-08-20T02:37:55.585Z,21.70
2022-08-20T02:38:07.946Z,21.70
2022-08-20T02:38:19.705Z,21.70
2022-08-20T02:38:34.819Z,21.70
2022-08-20T02:38:46.732Z,21.70
2022-08-20T02:38:58.526Z,21.70
2022-08-20T02:39:11.100Z,21.70
2022-08-20T02:39:22.870Z,21.70
2022-08-20T02:39:34.757Z,21.70
2022-08-20T02:39:46.911Z,21.70
2022-08-20T02:39:58.819Z,21.70
2022-08-20T02:40:13.530Z,21.70
2022-08-20T02:40:30.237Z,21.70
2022-08-20T02:40:44.234Z,21.70
2022-08-20T02:40:56.005Z,21.70
2022-08-20T02:41:08.522Z,21.70
2022-08-20T02:41:22.019Z,21.70
2022-08-20T02:41:34.915Z,21.70
2022-08-20T02:41:46.731Z,21.70
2022-08-20T02:41:58.517Z,21.70
2022-08-20T02:42:12.121Z,21.70
2022-08-20T02:42:23.968Z,21.70
2022-08-20T02:42:35.946Z,21.60
2022-08-20T02:42:47.795Z,21.60
2022-08-20T02:43:00.305Z,21.60
2022-08-20T02:43:12.533Z,21.60
2022-08-20T02:43:24.325Z,21.60
2022-08-20T02:43:37.317Z,21.60
2022-08-20T02:43:51.169Z,21.70
2022-08-20T02:44:03.495Z,21.60
2022-08-20T02:44:15.235Z,21.60
2022-08-20T02:44:27.014Z,21.60
2022-08-20T02:44:39.775Z,21.60
2022-08-20T02:44:51.770Z,21.60
2022-08-20T02:45:04.112Z,21.70
2022-08-20T02:45:19.158Z,21.60
2022-08-20T02:45:32.100Z,21.70
2022-08-20T02:45:44.148Z,21.70
2022-08-20T02:45:55.980Z,21.70
2022-08-20T02:46:07.843Z,21.70
2022-08-20T02:46:19.603Z,21.70
2022-08-20T02:46:31.773Z,21.70
2022-08-20T02:46:43.966Z,21.60
2022-08-20T02:46:55.697Z,21.60
2022-08-20T02:47:07.563Z,21.70
2022-08-20T02:47:19.299Z,21.70
2022-08-20T02:47:31.412Z,21.60
2022-08-20T02:47:44.523Z,21.60
2022-08-20T02:47:57.564Z,21.70
2022-08-20T02:48:20.663Z,21.70
2022-08-20T02:48:33.584Z,21.70
2022-08-20T02:48:45.463Z,21.70
2022-08-20T02:48:57.524Z,21.60
2022-08-20T02:49:09.818Z,21.60
2022-08-20T02:49:21.567Z,21.60
2022-08-20T02:49:33.351Z,21.60
2022-08-20T02:49:45.111Z,21.60
2022-08-20T02:49:59.665Z,21.60
2022-08-20T02:50:14.331Z,21.60
2022-08-20T02:50:26.345Z,21.60
2022-08-20T02:50:38.110Z,21.60
2022-08-20T02:50:54.334Z,21.60
2022-08-20T02:51:06.556Z,21.60
2022-08-20T02:51:18.272Z,21.60
2022-08-20T02:51:42.322Z,21.70
2022-08-20T02:51:54.403Z,21.60
2022-08-20T02:52:06.255Z,21.60
2022-08-20T02:52:17.982Z,21.60
2022-08-20T02:52:29.751Z,21.70
2022-08-20T02:52:41.917Z,21.70
2022-08-20T02:53:03.689Z,21.70
2022-08-20T02:53:16.608Z,21.60
2022-08-20T02:53:30.077Z,21.60
2022-08-20T02:53:42.232Z,21.70
2022-08-20T02:53:53.959Z,21.70
2022-08-20T02:54:05.967Z,21.70
2022-08-20T02:54:17.856Z,21.70
2022-08-20T02:54:29.614Z,21.60
2022-08-20T02:54:41.381Z,21.60
2022-08-20T02:54:53.442Z,21.60
2022-08-20T02:55:06.627Z,21.60
2022-08-20T02:55:25.328Z,21.60
2022-08-20T02:55:40.087Z,21.60
2022-08-20T02:55:51.886Z,21.60
2022-08-20T02:56:05.262Z,21.60
2022-08-20T02:56:16.997Z,21.60
2022-08-20T02:56:28.772Z,21.60
2022-08-20T02:56:40.603Z,21.70
2022-08-20T02:56:52.421Z,21.70
2022-08-20T02:57:04.682Z,21.70
2022-08-20T02:57:20.260Z,21.70
2022-08-20T02:57:32.500Z,21.70
2022-08-20T02:57:44.996Z,21.70
2022-08-20T02:57:58.440Z,21.70
2022-08-20T02:58:11.701Z,21.70
2022-08-20T02:58:23.556Z,21.70
2022-08-20T02:58:35.405Z,21.70
2022-08-20T02:58:47.161Z,21.70
2022-08-20T02:58:58.857Z,21.80
2022-08-20T02:59:10.711Z,21.80
2022-08-20T02:59:30.731Z,21.70
2022-08-20T02:59:43.737Z,21.80
2022-08-20T02:59:56.391Z,21.80
2022-08-20T03:00:11.166Z,21.80
2022-08-20T03:00:23.354Z,21.80
2022-08-20T03:00:38.548Z,21.80
2022-08-20T03:00:50.673Z,21.80
2022-08-20T03:01:03.772Z,21.80
2022-08-20T03:01:16.426Z,21.80
2022-08-20T03:01:28.361Z,21.80
2022-08-20T03:01:40.218Z,21.80
2022-08-20T03:01:59.516Z,21.80
2022-08-20T03:02:12.973Z,21.80
2022-08-20T03:02:24.987Z,21.80
2022-08-20T03:02:36.855Z,21.80
2022-08-20T03:02:48.722Z,21.80